• Join FlightAware (Why Join?)
  • Login
  • US Flag 
02:24AM EDT


 

Airport Tracker/Info


-or-


 

Live Flight TrackerFlight Track Log ✈ WJA617 ✈ 11-Jul-2012 ✈ CYEG - CYLW

Flight Track Log - Related Links

Times and Time Zones

All times are in EDT time to prevent confusion due to time zone crossing. See the WJA617 flight status page for this flight to view local times or setup timezone preferences in your user account.

Time Position Orientation Groundspeed Altitude Reporting Facility
EDT Latitude Longitude Course Direction KTS MPH feet Rate Location/Type
08:43AM 53.2500 -113.5667 215° Southwest 160 184 3,500  Level Edmonton Center
08:48AM 53.0333 -113.8167 270° West 330 380 18,000 2,880 Climbing Edmonton Center
08:49AM 53.0333 -113.9500 246° West 350 403 21,100 3,000 Climbing Edmonton Center
08:50AM 52.9833 -114.1333 252° West 370 426 24,100 2,700 Climbing Edmonton Center
08:51AM 52.9500 -114.3000 239° Southwest 390 449 26,600 2,400 Climbing Edmonton Center
08:52AM 52.8833 -114.4833 234° Southwest 410 472 29,000 2,160 Climbing Edmonton Center
08:53AM 52.8167 -114.6333 227° Southwest 430 495 31,000 2,400 Climbing Edmonton Center
08:54AM 52.7333 -114.7833 228° Southwest 440 506 33,800 2,460 Climbing Edmonton Center
08:55AM 52.6500 -114.9333 241° Southwest 430 495 36,000 2,040 Climbing Edmonton Center
08:56AM 52.6000 -115.0833 228° Southwest 420 483 37,900 1,620 Climbing Edmonton Center
08:57AM 52.5167 -115.2333 234° Southwest 420 483 39,300 1,020 Climbing Edmonton Center
08:58AM 52.4500 -115.3833 237° Southwest 420 483 40,000 300 Climbing Edmonton Center
08:59AM 52.3833 -115.5500 224° Southwest 420 483 40,000  Level Edmonton Center
09:00AM 52.3000 -115.6833 234° Southwest 410 472 40,000  Level Edmonton Center
09:01AM 52.2333 -115.8333 228° Southwest 410 472 40,000  Level Edmonton Center
09:02AM 52.1500 -115.9833 212° Southwest 420 483 40,000  Level Edmonton Center
09:03AM 52.1000 -116.0333 239° Southwest 420 483 40,000  Level Vancouver Center
09:04AM 52.0333 -116.2167 221° Southwest 420 483 40,000  Level Vancouver Center
09:05AM 51.9500 -116.3333 234° Southwest 420 483 40,000  Level Vancouver Center
09:06AM 51.8833 -116.4833 228° Southwest 420 483 40,000  Level Vancouver Center
09:07AM 51.8000 -116.6333 234° Southwest 420 483 40,000  Level Vancouver Center
09:08AM 51.7333 -116.7833 228° Southwest 420 483 40,000  Level Vancouver Center
09:09AM 51.6500 -116.9333 231° Southwest 430 495 40,000  Level Vancouver Center
09:10AM 51.5833 -117.0667 228° Southwest 420 483 40,000  Level Vancouver Center
09:11AM 51.5000 -117.2167 235° Southwest 430 495 40,000  Level Vancouver Center
09:12AM 51.4333 -117.3667 228° Southwest 430 495 40,000 -600 Level Vancouver Center
09:13AM 51.3500 -117.5167 231° Southwest 420 483 38,800 -2,040 Descending Vancouver Center
09:14AM 51.2833 -117.6500 228° Southwest 420 483 36,000 -2,640 Descending Vancouver Center
09:15AM 51.2000 -117.8000 231° Southwest 420 483 33,600 -2,400 Descending Vancouver Center
09:16AM 51.1333 -117.9333 221° Southwest 410 472 31,300 -2,220 Descending Vancouver Center
09:17AM 51.0500 -118.0500 235° Southwest 400 460 29,200 -2,100 Descending Vancouver Center
09:18AM 50.9833 -118.2000 228° Southwest 390 449 27,100 -2,100 Descending Vancouver Center
09:19AM 50.9167 -118.3167 228° Southwest 370 426 25,000 -2,040 Descending Vancouver Center
09:20AM 50.8500 -118.4333 232° Southwest 360 414 23,100 -1,980 Descending Vancouver Center
09:21AM 50.7833 -118.5667 227° Southwest 350 403 21,100 -1,920 Descending Vancouver Center
09:22AM 50.7333 -118.6500 228° Southwest 340 391 19,300 -1,800 Descending Vancouver Center
09:23AM 50.6667 -118.7667 228° Southwest 330 380 17,600 -1,800 Descending Vancouver Center
09:24AM 50.6000 -118.8833 232° Southwest 320 368 15,700 -1,860 Descending Vancouver Center
09:25AM 50.5500 -118.9833 227° Southwest 310 357 13,900 -1,800 Descending Vancouver Center
09:26AM 50.5000 -119.0667 236° Southwest 300 345 12,200 -1,560 Descending Vancouver Center
09:27AM 50.4500 -119.1833 206° Southwest 290 334 10,800 -960 Descending Vancouver Center
09:28AM 50.3833 -119.2333 220° Southwest 260 299 10,300 -600 Descending Vancouver Center
09:29AM 50.3333 -119.3000 198° South 240 276 9,700 -960 Descending Vancouver Center
09:30AM 50.2667 -119.3333 171° South 230 265 8,400 -1,380 Descending Vancouver Center
09:31AM 50.2000 -119.3167 192° South 230 265 7,000 -1,380 Descending Vancouver Center
09:32AM 50.1500 -119.3333 198° South 220 253 5,700 -1,320 Descending Vancouver Center
09:33AM 50.0833 -119.3667 192° South 200 230 4,400 -1,140 Descending Vancouver Center
09:34AM 50.0333 -119.3833 180° South 180 207 3,500 -900 Descending Vancouver Center
09:35AM 50.0000 -119.3833 162° South 150 173 2,700 -840 Descending Vancouver Center
09:36AM 49.9667 -119.3667 180° South 140 161 1,900 -660 Descending Vancouver Center
09:37AM 49.9333 -119.3667 180° South 100 115 1,400 -540 Descending Vancouver Center